createdAt,value
2022-09-17T13:22:33.133Z,29.38
2022-09-17T13:35:48.100Z,29.17
2022-09-17T13:38:20.283Z,27.77
2022-09-17T13:40:51.970Z,32.38
2022-09-17T13:46:12.508Z,33.83
2022-09-17T15:08:25.900Z,16.60
2022-09-17T15:10:57.607Z,15.27
2022-09-17T15:36:14.489Z,12.02
2022-09-17T15:38:44.684Z,8.27
2022-09-17T15:41:31.195Z,20.92
2022-09-17T15:44:29.932Z,14.82
2022-09-17T15:47:32.859Z,16.02
2022-09-17T15:50:18.267Z,15.20
2022-09-17T15:52:47.542Z,16.10
2022-09-17T15:55:33.655Z,14.18
2022-09-17T15:58:04.563Z,16.48
2022-09-17T16:00:33.508Z,10.80
2022-09-17T16:04:03.489Z,15.00
2022-09-17T16:06:40.236Z,21.33
2022-09-17T16:09:42.046Z,13.20
2022-09-17T16:12:14.425Z,13.70
2022-09-17T16:14:48.638Z,20.77
2022-09-17T16:17:35.699Z,13.65
2022-09-17T16:20:10.553Z,15.93
2022-09-17T16:22:40.794Z,10.60
2022-09-17T16:25:09.868Z,13.98
2022-09-17T16:27:46.910Z,13.60
2022-09-17T16:30:18.211Z,18.05
2022-09-17T16:32:47.239Z,14.27
2022-09-17T16:35:17.842Z,14.80
2022-09-17T16:37:50.165Z,13.43
2022-09-17T16:40:19.652Z,10.05
2022-09-17T16:42:49.000Z,14.13
2022-09-17T16:45:17.899Z,12.65
2022-09-17T16:47:46.816Z,13.80
2022-09-17T16:52:45.003Z,13.02
2022-09-17T16:55:17.241Z,12.38
2022-09-17T16:57:46.229Z,12.30
2022-09-17T17:00:19.073Z,15.68
2022-09-17T17:02:54.073Z,11.27
2022-09-17T17:05:23.446Z,12.82
2022-09-17T17:07:52.810Z,14.27
2022-09-17T17:10:23.222Z,17.80
2022-09-17T17:12:52.510Z,13.98
2022-09-17T17:15:21.757Z,13.75
2022-09-17T17:17:50.563Z,9.98
2022-09-17T17:20:19.506Z,13.52
2022-09-17T17:22:48.435Z,11.73
2022-09-17T17:25:17.298Z,11.10
2022-09-17T17:27:47.409Z,11.32
2022-09-17T17:30:17.631Z,8.55
2022-09-17T17:32:51.490Z,9.73
2022-09-17T17:35:20.770Z,3.03
2022-09-17T17:37:49.543Z,6.53
2022-09-17T17:40:18.565Z,6.25
2022-09-17T17:42:53.502Z,8.95
2022-09-17T17:45:22.265Z,4.63
2022-09-17T17:47:51.043Z,7.05
2022-09-17T17:50:19.843Z,7.03
2022-09-17T17:52:49.190Z,11.23
2022-09-17T17:55:18.265Z,7.43
2022-09-17T17:57:48.485Z,7.50
2022-09-17T18:10:13.184Z,9.55
2022-09-17T18:12:50.055Z,5.25
2022-09-17T18:15:20.155Z,9.23
2022-09-17T18:17:50.176Z,5.13
2022-09-17T18:20:19.506Z,5.43
2022-09-17T18:22:48.242Z,2.78
2022-09-17T18:25:17.026Z,3.50
2022-09-17T18:27:45.742Z,7.32
2022-09-17T18:30:14.863Z,5.40
2022-09-17T18:32:48.511Z,3.38
2022-09-17T18:35:20.023Z,5.80
2022-09-17T18:37:48.811Z,4.78
2022-09-17T18:40:17.790Z,6.82
2022-09-17T18:42:46.505Z,7.20
2022-09-17T18:45:15.331Z,6.80
2022-09-17T18:47:45.513Z,7.80
2022-09-17T18:50:14.472Z,7.68
2022-09-17T18:52:43.527Z,11.85
2022-09-17T18:55:12.318Z,7.45
2022-09-17T18:57:41.007Z,6.00
2022-09-17T19:00:11.459Z,8.48
2022-09-17T19:02:40.296Z,6.45
2022-09-17T19:05:10.867Z,10.48
2022-09-17T19:07:39.589Z,7.28
2022-09-17T19:10:09.269Z,8.70
2022-09-17T19:12:38.134Z,13.40
2022-09-17T19:15:08.554Z,7.18
2022-09-17T19:17:37.551Z,6.25
2022-09-17T19:20:06.904Z,6.53
2022-09-17T19:22:37.110Z,4.05
2022-09-17T19:25:06.704Z,7.07
2022-09-17T19:27:35.609Z,16.15
2022-09-17T19:30:04.529Z,12.23
2022-09-17T19:32:33.754Z,8.50
2022-09-17T19:35:02.541Z,8.60
2022-09-17T19:37:31.326Z,4.10
2022-09-17T19:40:01.960Z,6.10
2022-09-17T19:42:30.765Z,9.13
2022-09-17T19:44:59.655Z,6.65
2022-09-17T19:47:28.362Z,5.45
2022-09-17T19:49:57.411Z,4.50
2022-09-17T19:52:26.237Z,5.70
2022-09-17T19:54:55.117Z,4.45
2022-09-17T19:57:25.397Z,5.82
2022-09-17T19:59:54.423Z,5.10
2022-09-17T20:02:23.151Z,7.15
2022-09-17T20:04:51.953Z,6.25
2022-09-17T20:07:20.737Z,3.50
2022-09-17T20:09:49.487Z,13.63
2022-09-17T20:22:13.228Z,3.08
2022-09-17T20:24:41.985Z,6.40
